Orbital elements of COSMOS 1275 DEB
| Launched | 3 June 1981 |
| Flight ended | – |
| Launch site | Plesetsk Missile and Space Complex, Russia |
| Owner | Commonwealth of Independent States (former USSR) |
| NORAD ID | 12727 |
| Date fetched |
Epoch osculation |
Inc. [°] |
Ecc. | RA asc node [hr] |
Arg Peri. [°] |
Mean anom [°] |
Mean motion [rev/day] |
Abs. mag |
| Date fetched |
Epoch osculation |
Inc. [°] |
Ecc. | RA asc node [hr] |
Arg Peri. [°] |
Mean anom [°] |
Mean motion [rev/day] |
Abs. mag |
| 2026 May 05 17:57 | 2026 May 05 12:43:22 | 83.2883 | 0.00864 | 3.1005 | 229.7944 | 253.5648 | 13.93898 | – |
| 2026 May 04 17:57 | 2026 Apr 30 14:05:50 | 83.2882 | 0.00865 | 3.3402 | 244.5912 | 253.5648 | 13.93898 | – |
| 2026 May 03 17:57 | 2026 Apr 30 14:05:50 | 83.2882 | 0.00865 | 3.3402 | 244.5912 | 253.5648 | 13.93898 | – |
| 2026 May 02 17:57 | 2026 Apr 30 14:05:50 | 83.2882 | 0.00865 | 3.3402 | 244.5912 | 253.5648 | 13.93898 | – |
| 2026 May 01 17:56 | 2026 Apr 30 14:05:50 | 83.2882 | 0.00865 | 3.3402 | 244.5912 | 253.5648 | 13.93898 | – |
| 2026 Apr 30 17:56 | 2026 Apr 30 14:05:50 | 83.2882 | 0.00865 | 3.3402 | 244.5912 | 253.5648 | 13.93898 | – |
| 2026 Apr 29 17:57 | 2026 Apr 24 07:59:24 | 83.2875 | 0.00869 | 3.6436 | 263.2299 | 253.5648 | 13.93898 | – |
| 2026 Apr 28 17:56 | 2026 Apr 24 07:59:24 | 83.2875 | 0.00869 | 3.6436 | 263.2299 | 253.5648 | 13.93898 | – |
| 2026 Apr 27 17:58 | 2026 Apr 24 07:59:24 | 83.2875 | 0.00869 | 3.6436 | 263.2299 | 253.5648 | 13.93898 | – |
| 2026 Apr 26 17:58 | 2026 Apr 24 07:59:24 | 83.2875 | 0.00869 | 3.6436 | 263.2299 | 253.5648 | 13.93898 | – |
| 2026 Apr 25 17:58 | 2026 Apr 24 07:59:24 | 83.2875 | 0.00869 | 3.6436 | 263.2299 | 253.5648 | 13.93898 | – |
| 2026 Apr 24 17:59 | 2026 Apr 24 07:59:24 | 83.2875 | 0.00869 | 3.6436 | 263.2299 | 253.5648 | 13.93898 | – |
| 2026 Apr 23 17:57 | 2026 Apr 19 07:30:36 | 83.2868 | 0.00874 | 3.8871 | 278.1059 | 253.5648 | 13.93898 | – |
| 2026 Apr 22 17:57 | 2026 Apr 19 07:30:36 | 83.2868 | 0.00874 | 3.8871 | 278.1059 | 253.5648 | 13.93898 | – |
| 2026 Apr 21 17:57 | 2026 Apr 19 07:30:36 | 83.2868 | 0.00874 | 3.8871 | 278.1059 | 253.5648 | 13.93898 | – |
| 2026 Apr 20 17:57 | 2026 Apr 19 07:30:36 | 83.2868 | 0.00874 | 3.8871 | 278.1059 | 253.5648 | 13.93898 | – |
| 2026 Apr 19 17:58 | 2026 Apr 19 07:30:36 | 83.2868 | 0.00874 | 3.8871 | 278.1059 | 253.5648 | 13.93898 | – |
| 2026 Apr 18 17:56 | 2026 Apr 12 15:23:11 | 83.2858 | 0.00882 | 4.2108 | 297.7114 | 253.5648 | 13.93898 | – |
| 2026 Apr 16 17:57 | 2026 Apr 12 15:23:11 | 83.2858 | 0.00882 | 4.2108 | 297.7114 | 253.5648 | 13.93898 | – |
| 2026 Apr 14 17:57 | 2026 Apr 12 15:23:11 | 83.2858 | 0.00882 | 4.2108 | 297.7114 | 253.5648 | 13.93898 | – |
| 2026 Apr 13 17:57 | 2026 Apr 12 15:23:11 | 83.2858 | 0.00882 | 4.2108 | 297.7114 | 253.5648 | 13.93898 | – |
| 2026 Apr 12 17:57 | 2026 Apr 08 09:42:22 | 83.2861 | 0.00888 | 4.4164 | 310.0455 | 253.5648 | 13.93898 | – |
| 2026 Apr 11 17:57 | 2026 Apr 08 09:42:22 | 83.2861 | 0.00888 | 4.4164 | 310.0455 | 253.5648 | 13.93898 | – |
| 2026 Apr 10 17:58 | 2026 Apr 08 09:42:22 | 83.2861 | 0.00888 | 4.4164 | 310.0455 | 253.5648 | 13.93898 | – |
| 2026 Apr 09 18:01 | 2026 Apr 08 09:42:22 | 83.2861 | 0.00888 | 4.4164 | 310.0455 | 253.5648 | 13.93898 | – |
| 2026 Apr 08 17:57 | 2026 Apr 08 09:42:22 | 83.2861 | 0.00888 | 4.4164 | 310.0455 | 253.5648 | 13.93898 | – |